sensor_id;sensor_type;location;lat;lon;timestamp;P1;durP1;ratioP1;P2;durP2;ratioP2
4214;SDS011;2121;48.062;7.850;2022-08-19T00:01:45;17.23;;;12.40;;
4214;SDS011;2121;48.062;7.850;2022-08-19T00:04:14;12.80;;;11.50;;
4214;SDS011;2121;48.062;7.850;2022-08-19T00:06:44;14.30;;;12.80;;
4214;SDS011;2121;48.062;7.850;2022-08-19T00:09:12;12.67;;;10.53;;
4214;SDS011;2121;48.062;7.850;2022-08-19T00:11:41;13.70;;;10.97;;
4214;SDS011;2121;48.062;7.850;2022-08-19T00:14:10;12.60;;;11.27;;
4214;SDS011;2121;48.062;7.850;2022-08-19T00:16:37;11.57;;;10.40;;
4214;SDS011;2121;48.062;7.850;2022-08-19T00:19:05;11.30;;;10.10;;
4214;SDS011;2121;48.062;7.850;2022-08-19T00:21:31;13.57;;;10.70;;
4214;SDS011;2121;48.062;7.850;2022-08-19T00:23:57;11.50;;;9.93;;
4214;SDS011;2121;48.062;7.850;2022-08-19T00:26:24;15.57;;;10.33;;
4214;SDS011;2121;48.062;7.850;2022-08-19T00:28:52;11.60;;;10.30;;
4214;SDS011;2121;48.062;7.850;2022-08-19T00:31:18;11.50;;;9.83;;
4214;SDS011;2121;48.062;7.850;2022-08-19T00:33:44;16.80;;;10.53;;
4214;SDS011;2121;48.062;7.850;2022-08-19T00:36:10;11.63;;;10.43;;
4214;SDS011;2121;48.062;7.850;2022-08-19T00:38:37;10.70;;;9.60;;
4214;SDS011;2121;48.062;7.850;2022-08-19T00:41:08;13.27;;;10.37;;
4214;SDS011;2121;48.062;7.850;2022-08-19T00:43:39;12.13;;;10.93;;
4214;SDS011;2121;48.062;7.850;2022-08-19T00:46:06;11.87;;;10.77;;
4214;SDS011;2121;48.062;7.850;2022-08-19T00:48:32;12.53;;;10.80;;
4214;SDS011;2121;48.062;7.850;2022-08-19T00:50:59;12.50;;;11.30;;
4214;SDS011;2121;48.062;7.850;2022-08-19T00:53:26;14.00;;;11.57;;
4214;SDS011;2121;48.062;7.850;2022-08-19T00:55:55;11.87;;;10.67;;
4214;SDS011;2121;48.062;7.850;2022-08-19T00:58:24;12.20;;;11.00;;
4214;SDS011;2121;48.062;7.850;2022-08-19T01:00:54;17.40;;;13.40;;
4214;SDS011;2121;48.062;7.850;2022-08-19T01:03:20;15.57;;;12.93;;
4214;SDS011;2121;48.062;7.850;2022-08-19T01:05:47;12.20;;;10.90;;
4214;SDS011;2121;48.062;7.850;2022-08-19T01:08:16;11.97;;;10.77;;
4214;SDS011;2121;48.062;7.850;2022-08-19T01:10:50;15.93;;;12.33;;
4214;SDS011;2121;48.062;7.850;2022-08-19T01:13:29;13.40;;;11.10;;
4214;SDS011;2121;48.062;7.850;2022-08-19T01:16:04;13.47;;;11.33;;
4214;SDS011;2121;48.062;7.850;2022-08-19T01:18:35;13.43;;;11.77;;
4214;SDS011;2121;48.062;7.850;2022-08-19T01:21:07;13.73;;;12.33;;
4214;SDS011;2121;48.062;7.850;2022-08-19T01:23:39;15.23;;;12.60;;
4214;SDS011;2121;48.062;7.850;2022-08-19T01:26:09;14.00;;;12.37;;
4214;SDS011;2121;48.062;7.850;2022-08-19T01:28:47;17.70;;;13.67;;
4214;SDS011;2121;48.062;7.850;2022-08-19T01:31:18;18.20;;;12.43;;
4214;SDS011;2121;48.062;7.850;2022-08-19T01:33:48;15.00;;;12.73;;
4214;SDS011;2121;48.062;7.850;2022-08-19T01:36:22;14.67;;;13.13;;
4214;SDS011;2121;48.062;7.850;2022-08-19T01:38:56;15.13;;;13.63;;
4214;SDS011;2121;48.062;7.850;2022-08-19T01:41:23;15.20;;;13.60;;
4214;SDS011;2121;48.062;7.850;2022-08-19T01:43:50;16.77;;;12.90;;
4214;SDS011;2121;48.062;7.850;2022-08-19T01:46:17;23.43;;;14.37;;
4214;SDS011;2121;48.062;7.850;2022-08-19T01:48:44;16.90;;;13.17;;
4214;SDS011;2121;48.062;7.850;2022-08-19T01:51:10;18.87;;;14.00;;
4214;SDS011;2121;48.062;7.850;2022-08-19T01:53:37;15.60;;;13.60;;
4214;SDS011;2121;48.062;7.850;2022-08-19T01:56:04;14.80;;;13.00;;
4214;SDS011;2121;48.062;7.850;2022-08-19T01:58:36;17.33;;;14.00;;
4214;SDS011;2121;48.062;7.850;2022-08-19T02:01:07;14.70;;;12.73;;
4214;SDS011;2121;48.062;7.850;2022-08-19T02:03:33;14.70;;;13.20;;
4214;SDS011;2121;48.062;7.850;2022-08-19T02:06:02;17.33;;;12.63;;
4214;SDS011;2121;48.062;7.850;2022-08-19T02:08:30;15.40;;;12.80;;
4214;SDS011;2121;48.062;7.850;2022-08-19T02:10:58;15.33;;;12.67;;
4214;SDS011;2121;48.062;7.850;2022-08-19T02:13:24;16.20;;;12.47;;
4214;SDS011;2121;48.062;7.850;2022-08-19T02:15:51;14.20;;;11.70;;
4214;SDS011;2121;48.062;7.850;2022-08-19T02:18:17;15.37;;;12.67;;
4214;SDS011;2121;48.062;7.850;2022-08-19T02:20:43;14.83;;;11.90;;
4214;SDS011;2121;48.062;7.850;2022-08-19T02:23:10;15.27;;;12.33;;
4214;SDS011;2121;48.062;7.850;2022-08-19T02:25:37;15.03;;;12.50;;
4214;SDS011;2121;48.062;7.850;2022-08-19T02:28:04;16.87;;;12.67;;
4214;SDS011;2121;48.062;7.850;2022-08-19T02:30:30;14.17;;;11.60;;
4214;SDS011;2121;48.062;7.850;2022-08-19T02:32:56;13.70;;;12.27;;
4214;SDS011;2121;48.062;7.850;2022-08-19T02:35:22;18.53;;;13.07;;
4214;SDS011;2121;48.062;7.850;2022-08-19T02:37:49;15.87;;;12.00;;
4214;SDS011;2121;48.062;7.850;2022-08-19T02:40:33;13.20;;;11.90;;
4214;SDS011;2121;48.062;7.850;2022-08-19T02:43:03;16.53;;;14.10;;
4214;SDS011;2121;48.062;7.850;2022-08-19T02:45:36;14.80;;;13.07;;
4214;SDS011;2121;48.062;7.850;2022-08-19T02:48:05;15.30;;;12.40;;
4214;SDS011;2121;48.062;7.850;2022-08-19T02:50:31;13.83;;;11.80;;
4214;SDS011;2121;48.062;7.850;2022-08-19T02:52:57;18.20;;;13.80;;
4214;SDS011;2121;48.062;7.850;2022-08-19T02:55:23;14.20;;;11.90;;
4214;SDS011;2121;48.062;7.850;2022-08-19T02:57:49;15.67;;;13.80;;
4214;SDS011;2121;48.062;7.850;2022-08-19T03:00:15;18.83;;;13.60;;
4214;SDS011;2121;48.062;7.850;2022-08-19T03:02:41;15.97;;;12.20;;
4214;SDS011;2121;48.062;7.850;2022-08-19T03:05:07;16.67;;;11.80;;
4214;SDS011;2121;48.062;7.850;2022-08-19T03:07:35;14.30;;;12.80;;
4214;SDS011;2121;48.062;7.850;2022-08-19T03:10:02;16.90;;;12.43;;
4214;SDS011;2121;48.062;7.850;2022-08-19T03:12:29;13.27;;;11.97;;
4214;SDS011;2121;48.062;7.850;2022-08-19T03:14:55;15.30;;;12.10;;
4214;SDS011;2121;48.062;7.850;2022-08-19T03:17:21;17.10;;;12.50;;
4214;SDS011;2121;48.062;7.850;2022-08-19T03:19:47;15.50;;;13.50;;
4214;SDS011;2121;48.062;7.850;2022-08-19T03:22:13;15.53;;;12.50;;
4214;SDS011;2121;48.062;7.850;2022-08-19T03:24:39;15.40;;;13.80;;
4214;SDS011;2121;48.062;7.850;2022-08-19T03:27:05;15.03;;;13.47;;
4214;SDS011;2121;48.062;7.850;2022-08-19T03:29:31;18.77;;;12.77;;
4214;SDS011;2121;48.062;7.850;2022-08-19T03:32:01;16.77;;;13.40;;
4214;SDS011;2121;48.062;7.850;2022-08-19T03:34:30;16.07;;;12.73;;
4214;SDS011;2121;48.062;7.850;2022-08-19T03:37:02;14.67;;;12.17;;
4214;SDS011;2121;48.062;7.850;2022-08-19T03:39:32;16.50;;;14.73;;
4214;SDS011;2121;48.062;7.850;2022-08-19T03:42:02;15.93;;;14.23;;
4214;SDS011;2121;48.062;7.850;2022-08-19T03:44:29;13.67;;;12.30;;
4214;SDS011;2121;48.062;7.850;2022-08-19T03:46:58;17.67;;;14.60;;
4214;SDS011;2121;48.062;7.850;2022-08-19T03:49:27;13.60;;;11.43;;
4214;SDS011;2121;48.062;7.850;2022-08-19T03:51:56;14.07;;;12.67;;
4214;SDS011;2121;48.062;7.850;2022-08-19T03:54:25;14.37;;;12.87;;
4214;SDS011;2121;48.062;7.850;2022-08-19T03:56:53;16.80;;;13.83;;
4214;SDS011;2121;48.062;7.850;2022-08-19T03:59:22;13.23;;;11.70;;
4214;SDS011;2121;48.062;7.850;2022-08-19T04:01:57;15.53;;;13.93;;
4214;SDS011;2121;48.062;7.850;2022-08-19T04:04:27;18.27;;;14.27;;
4214;SDS011;2121;48.062;7.850;2022-08-19T04:06:54;19.20;;;13.67;;
4214;SDS011;2121;48.062;7.850;2022-08-19T04:09:20;13.90;;;12.20;;
4214;SDS011;2121;48.062;7.850;2022-08-19T04:11:47;19.07;;;13.73;;
4214;SDS011;2121;48.062;7.850;2022-08-19T04:14:19;17.67;;;13.57;;
4214;SDS011;2121;48.062;7.850;2022-08-19T04:16:49;14.30;;;12.53;;
4214;SDS011;2121;48.062;7.850;2022-08-19T04:19:16;14.97;;;13.37;;
4214;SDS011;2121;48.062;7.850;2022-08-19T04:21:44;14.40;;;12.97;;
4214;SDS011;2121;48.062;7.850;2022-08-19T04:24:15;18.53;;;14.23;;
4214;SDS011;2121;48.062;7.850;2022-08-19T04:26:41;15.37;;;13.33;;
4214;SDS011;2121;48.062;7.850;2022-08-19T04:29:10;17.60;;;14.10;;
4214;SDS011;2121;48.062;7.850;2022-08-19T04:31:41;20.50;;;14.77;;
4214;SDS011;2121;48.062;7.850;2022-08-19T04:34:10;16.73;;;14.93;;
4214;SDS011;2121;48.062;7.850;2022-08-19T04:36:38;16.83;;;14.53;;
4214;SDS011;2121;48.062;7.850;2022-08-19T04:39:16;18.10;;;14.37;;
4214;SDS011;2121;48.062;7.850;2022-08-19T04:41:45;17.80;;;13.50;;
4214;SDS011;2121;48.062;7.850;2022-08-19T04:44:33;18.40;;;15.90;;
4214;SDS011;2121;48.062;7.850;2022-08-19T04:47:00;19.80;;;15.13;;
4214;SDS011;2121;48.062;7.850;2022-08-19T04:49:28;26.60;;;14.73;;
4214;SDS011;2121;48.062;7.850;2022-08-19T04:51:54;16.63;;;14.83;;
4214;SDS011;2121;48.062;7.850;2022-08-19T04:54:21;22.43;;;15.70;;
4214;SDS011;2121;48.062;7.850;2022-08-19T04:56:49;15.60;;;13.77;;
4214;SDS011;2121;48.062;7.850;2022-08-19T04:59:17;16.63;;;13.50;;
4214;SDS011;2121;48.062;7.850;2022-08-19T05:01:45;14.73;;;13.23;;
4214;SDS011;2121;48.062;7.850;2022-08-19T05:04:14;16.57;;;14.80;;
4214;SDS011;2121;48.062;7.850;2022-08-19T05:06:44;22.63;;;15.60;;
4214;SDS011;2121;48.062;7.850;2022-08-19T05:09:12;20.90;;;14.60;;
4214;SDS011;2121;48.062;7.850;2022-08-19T05:11:39;20.90;;;13.53;;
4214;SDS011;2121;48.062;7.850;2022-08-19T05:14:05;20.60;;;14.53;;
4214;SDS011;2121;48.062;7.850;2022-08-19T05:16:32;18.50;;;12.77;;
4214;SDS011;2121;48.062;7.850;2022-08-19T05:18:59;17.87;;;13.67;;
4214;SDS011;2121;48.062;7.850;2022-08-19T05:21:43;16.73;;;14.20;;
4214;SDS011;2121;48.062;7.850;2022-08-19T05:24:27;17.70;;;14.80;;
4214;SDS011;2121;48.062;7.850;2022-08-19T05:26:59;17.60;;;13.43;;
4214;SDS011;2121;48.062;7.850;2022-08-19T05:29:27;19.90;;;14.37;;
4214;SDS011;2121;48.062;7.850;2022-08-19T05:31:54;15.87;;;14.13;;
4214;SDS011;2121;48.062;7.850;2022-08-19T05:34:21;15.87;;;14.20;;
4214;SDS011;2121;48.062;7.850;2022-08-19T05:36:56;18.57;;;14.47;;
4214;SDS011;2121;48.062;7.850;2022-08-19T05:39:24;19.30;;;16.60;;
4214;SDS011;2121;48.062;7.850;2022-08-19T05:41:55;18.17;;;16.03;;
4214;SDS011;2121;48.062;7.850;2022-08-19T05:44:28;21.80;;;16.07;;
4214;SDS011;2121;48.062;7.850;2022-08-19T05:46:56;17.80;;;15.90;;
4214;SDS011;2121;48.062;7.850;2022-08-19T05:49:24;17.47;;;15.23;;
4214;SDS011;2121;48.062;7.850;2022-08-19T05:51:52;18.67;;;15.27;;
4214;SDS011;2121;48.062;7.850;2022-08-19T05:54:19;20.40;;;16.70;;
4214;SDS011;2121;48.062;7.850;2022-08-19T05:56:48;16.30;;;14.60;;
4214;SDS011;2121;48.062;7.850;2022-08-19T05:59:18;16.80;;;14.90;;
4214;SDS011;2121;48.062;7.850;2022-08-19T06:01:47;20.10;;;14.60;;
4214;SDS011;2121;48.062;7.850;2022-08-19T06:04:19;21.33;;;15.90;;
4214;SDS011;2121;48.062;7.850;2022-08-19T06:06:46;18.40;;;15.60;;
4214;SDS011;2121;48.062;7.850;2022-08-19T06:09:16;18.47;;;15.80;;
4214;SDS011;2121;48.062;7.850;2022-08-19T06:11:46;17.63;;;15.80;;
4214;SDS011;2121;48.062;7.850;2022-08-19T06:14:25;15.97;;;14.27;;
4214;SDS011;2121;48.062;7.850;2022-08-19T06:16:56;20.30;;;14.90;;
4214;SDS011;2121;48.062;7.850;2022-08-19T06:19:25;18.87;;;14.37;;
4214;SDS011;2121;48.062;7.850;2022-08-19T06:21:51;22.53;;;15.27;;
4214;SDS011;2121;48.062;7.850;2022-08-19T06:24:19;15.97;;;13.60;;
4214;SDS011;2121;48.062;7.850;2022-08-19T06:26:51;16.77;;;14.73;;
4214;SDS011;2121;48.062;7.850;2022-08-19T06:29:20;17.50;;;14.40;;
4214;SDS011;2121;48.062;7.850;2022-08-19T06:31:49;15.77;;;14.03;;
4214;SDS011;2121;48.062;7.850;2022-08-19T06:34:19;15.73;;;13.10;;
4214;SDS011;2121;48.062;7.850;2022-08-19T06:36:46;16.57;;;14.53;;
4214;SDS011;2121;48.062;7.850;2022-08-19T06:39:15;17.67;;;14.37;;
4214;SDS011;2121;48.062;7.850;2022-08-19T06:41:51;14.87;;;13.37;;
4214;SDS011;2121;48.062;7.850;2022-08-19T06:44:27;15.93;;;12.80;;
4214;SDS011;2121;48.062;7.850;2022-08-19T06:47:00;13.47;;;12.07;;
4214;SDS011;2121;48.062;7.850;2022-08-19T06:49:28;13.90;;;11.90;;
4214;SDS011;2121;48.062;7.850;2022-08-19T06:51:56;14.93;;;13.17;;
4214;SDS011;2121;48.062;7.850;2022-08-19T06:54:23;16.20;;;14.17;;
4214;SDS011;2121;48.062;7.850;2022-08-19T06:56:51;12.37;;;11.07;;
4214;SDS011;2121;48.062;7.850;2022-08-19T06:59:19;16.87;;;13.53;;
4214;SDS011;2121;48.062;7.850;2022-08-19T07:01:52;14.83;;;11.90;;
4214;SDS011;2121;48.062;7.850;2022-08-19T07:04:22;16.43;;;12.73;;
4214;SDS011;2121;48.062;7.850;2022-08-19T07:06:56;13.40;;;12.00;;
4214;SDS011;2121;48.062;7.850;2022-08-19T07:09:33;13.83;;;12.43;;
4214;SDS011;2121;48.062;7.850;2022-08-19T07:12:02;16.60;;;12.93;;
4214;SDS011;2121;48.062;7.850;2022-08-19T07:14:31;13.37;;;11.97;;
4214;SDS011;2121;48.062;7.850;2022-08-19T07:17:02;13.70;;;12.00;;
4214;SDS011;2121;48.062;7.850;2022-08-19T07:19:31;15.57;;;13.23;;
4214;SDS011;2121;48.062;7.850;2022-08-19T07:21:58;17.20;;;13.30;;
4214;SDS011;2121;48.062;7.850;2022-08-19T07:24:27;15.70;;;13.77;;
4214;SDS011;2121;48.062;7.850;2022-08-19T07:26:54;13.40;;;12.00;;
4214;SDS011;2121;48.062;7.850;2022-08-19T07:29:27;11.37;;;10.27;;
4214;SDS011;2121;48.062;7.850;2022-08-19T07:31:58;14.17;;;12.73;;
4214;SDS011;2121;48.062;7.850;2022-08-19T07:34:25;15.77;;;12.87;;
4214;SDS011;2121;48.062;7.850;2022-08-19T07:36:53;19.67;;;12.90;;
4214;SDS011;2121;48.062;7.850;2022-08-19T07:39:24;15.03;;;13.47;;
4214;SDS011;2121;48.062;7.850;2022-08-19T07:41:54;17.60;;;13.33;;
4214;SDS011;2121;48.062;7.850;2022-08-19T07:44:23;15.20;;;12.60;;
4214;SDS011;2121;48.062;7.850;2022-08-19T07:46:50;14.33;;;11.90;;
4214;SDS011;2121;48.062;7.850;2022-08-19T07:49:19;14.43;;;13.00;;
4214;SDS011;2121;48.062;7.850;2022-08-19T07:51:46;13.60;;;12.20;;
4214;SDS011;2121;48.062;7.850;2022-08-19T07:54:16;14.20;;;12.77;;
4214;SDS011;2121;48.062;7.850;2022-08-19T07:56:44;18.67;;;14.17;;
4214;SDS011;2121;48.062;7.850;2022-08-19T07:59:10;16.83;;;13.37;;
4214;SDS011;2121;48.062;7.850;2022-08-19T08:01:36;12.73;;;11.50;;
4214;SDS011;2121;48.062;7.850;2022-08-19T08:04:05;14.03;;;11.63;;
4214;SDS011;2121;48.062;7.850;2022-08-19T08:06:51;14.50;;;11.30;;
4214;SDS011;2121;48.062;7.850;2022-08-19T08:09:37;17.97;;;13.90;;
4214;SDS011;2121;48.062;7.850;2022-08-19T08:12:07;17.87;;;12.03;;
4214;SDS011;2121;48.062;7.850;2022-08-19T08:14:38;15.73;;;14.03;;
4214;SDS011;2121;48.062;7.850;2022-08-19T08:17:17;14.53;;;13.03;;
4214;SDS011;2121;48.062;7.850;2022-08-19T08:19:45;17.07;;;12.20;;
4214;SDS011;2121;48.062;7.850;2022-08-19T08:22:13;14.80;;;11.67;;
4214;SDS011;2121;48.062;7.850;2022-08-19T08:25:08;14.47;;;12.97;;
4214;SDS011;2121;48.062;7.850;2022-08-19T08:27:39;18.13;;;13.27;;
4214;SDS011;2121;48.062;7.850;2022-08-19T08:30:12;17.07;;;13.73;;
4214;SDS011;2121;48.062;7.850;2022-08-19T08:32:44;15.70;;;12.73;;
4214;SDS011;2121;48.062;7.850;2022-08-19T08:35:12;13.90;;;12.50;;
4214;SDS011;2121;48.062;7.850;2022-08-19T08:37:41;13.93;;;12.47;;
4214;SDS011;2121;48.062;7.850;2022-08-19T08:42:56;16.00;;;12.40;;
4214;SDS011;2121;48.062;7.850;2022-08-19T08:45:38;17.13;;;13.20;;
4214;SDS011;2121;48.062;7.850;2022-08-19T08:48:18;16.67;;;14.87;;
4214;SDS011;2121;48.062;7.850;2022-08-19T08:51:02;19.67;;;15.03;;
4214;SDS011;2121;48.062;7.850;2022-08-19T08:53:36;16.17;;;14.37;;
4214;SDS011;2121;48.062;7.850;2022-08-19T08:56:03;19.00;;;14.80;;
4214;SDS011;2121;48.062;7.850;2022-08-19T08:58:35;20.90;;;16.07;;
4214;SDS011;2121;48.062;7.850;2022-08-19T09:01:19;19.93;;;16.60;;
4214;SDS011;2121;48.062;7.850;2022-08-19T09:03:45;14.53;;;13.00;;
4214;SDS011;2121;48.062;7.850;2022-08-19T09:09:26;22.97;;;14.17;;
4214;SDS011;2121;48.062;7.850;2022-08-19T09:15:07;17.37;;;14.27;;
4214;SDS011;2121;48.062;7.850;2022-08-19T09:17:37;14.23;;;12.83;;
4214;SDS011;2121;48.062;7.850;2022-08-19T09:20:13;15.43;;;13.87;;
4214;SDS011;2121;48.062;7.850;2022-08-19T09:22:46;16.07;;;14.37;;
4214;SDS011;2121;48.062;7.850;2022-08-19T09:25:15;17.97;;;15.10;;
4214;SDS011;2121;48.062;7.850;2022-08-19T09:27:49;16.53;;;14.80;;
4214;SDS011;2121;48.062;7.850;2022-08-19T09:30:22;23.57;;;16.07;;
4214;SDS011;2121;48.062;7.850;2022-08-19T09:32:51;20.50;;;16.23;;
4214;SDS011;2121;48.062;7.850;2022-08-19T09:35:19;15.97;;;14.33;;
4214;SDS011;2121;48.062;7.850;2022-08-19T09:37:50;17.10;;;15.10;;
4214;SDS011;2121;48.062;7.850;2022-08-19T09:40:17;15.60;;;13.97;;
4214;SDS011;2121;48.062;7.850;2022-08-19T09:42:45;19.77;;;15.53;;
4214;SDS011;2121;48.062;7.850;2022-08-19T09:45:12;17.30;;;15.10;;
4214;SDS011;2121;48.062;7.850;2022-08-19T09:47:40;16.50;;;13.93;;
4214;SDS011;2121;48.062;7.850;2022-08-19T09:50:06;16.43;;;14.27;;
4214;SDS011;2121;48.062;7.850;2022-08-19T09:52:35;18.50;;;16.50;;
4214;SDS011;2121;48.062;7.850;2022-08-19T09:55:05;22.47;;;19.20;;
4214;SDS011;2121;48.062;7.850;2022-08-19T09:57:33;17.70;;;15.87;;
4214;SDS011;2121;48.062;7.850;2022-08-19T09:59:59;21.13;;;18.20;;
4214;SDS011;2121;48.062;7.850;2022-08-19T10:02:26;20.03;;;17.73;;
4214;SDS011;2121;48.062;7.850;2022-08-19T10:04:52;17.83;;;15.20;;
4214;SDS011;2121;48.062;7.850;2022-08-19T10:07:36;22.07;;;17.30;;
4214;SDS011;2121;48.062;7.850;2022-08-19T10:10:05;19.47;;;16.70;;
4214;SDS011;2121;48.062;7.850;2022-08-19T10:12:34;19.50;;;15.70;;
4214;SDS011;2121;48.062;7.850;2022-08-19T10:15:00;19.17;;;15.90;;
4214;SDS011;2121;48.062;7.850;2022-08-19T10:17:27;22.43;;;17.77;;
4214;SDS011;2121;48.062;7.850;2022-08-19T10:19:53;19.53;;;15.87;;
4214;SDS011;2121;48.062;7.850;2022-08-19T10:22:19;27.40;;;17.07;;
4214;SDS011;2121;48.062;7.850;2022-08-19T10:24:45;19.20;;;16.97;;
4214;SDS011;2121;48.062;7.850;2022-08-19T10:27:12;22.43;;;17.40;;
4214;SDS011;2121;48.062;7.850;2022-08-19T10:29:39;19.27;;;16.10;;
4214;SDS011;2121;48.062;7.850;2022-08-19T10:32:06;24.40;;;17.60;;
4214;SDS011;2121;48.062;7.850;2022-08-19T10:34:34;22.30;;;18.70;;
4214;SDS011;2121;48.062;7.850;2022-08-19T10:37:02;26.70;;;18.70;;
4214;SDS011;2121;48.062;7.850;2022-08-19T10:39:32;28.40;;;19.50;;
4214;SDS011;2121;48.062;7.850;2022-08-19T10:42:04;19.70;;;17.60;;
4214;SDS011;2121;48.062;7.850;2022-08-19T10:44:31;22.70;;;17.70;;
4214;SDS011;2121;48.062;7.850;2022-08-19T10:47:00;23.30;;;18.90;;
4214;SDS011;2121;48.062;7.850;2022-08-19T10:49:27;24.13;;;17.70;;
4214;SDS011;2121;48.062;7.850;2022-08-19T10:51:53;25.87;;;18.60;;
4214;SDS011;2121;48.062;7.850;2022-08-19T10:54:39;20.77;;;16.70;;
4214;SDS011;2121;48.062;7.850;2022-08-19T10:57:23;21.77;;;17.23;;
4214;SDS011;2121;48.062;7.850;2022-08-19T10:59:53;20.50;;;17.70;;
4214;SDS011;2121;48.062;7.850;2022-08-19T11:02:20;20.67;;;17.33;;
4214;SDS011;2121;48.062;7.850;2022-08-19T11:04:47;20.83;;;15.20;;
4214;SDS011;2121;48.062;7.850;2022-08-19T11:07:15;21.38;;;16.58;;
4214;SDS011;2121;48.062;7.850;2022-08-19T11:09:41;22.25;;;18.80;;
4214;SDS011;2121;48.062;7.850;2022-08-19T11:12:08;20.50;;;16.88;;
4214;SDS011;2121;48.062;7.850;2022-08-19T11:14:35;20.53;;;17.57;;
4214;SDS011;2121;48.062;7.850;2022-08-19T11:17:02;17.67;;;15.80;;
4214;SDS011;2121;48.062;7.850;2022-08-19T11:19:30;27.53;;;17.27;;
4214;SDS011;2121;48.062;7.850;2022-08-19T11:21:56;20.90;;;18.13;;
4214;SDS011;2121;48.062;7.850;2022-08-19T11:24:26;19.60;;;16.03;;
4214;SDS011;2121;48.062;7.850;2022-08-19T11:26:53;22.73;;;17.13;;
4214;SDS011;2121;48.062;7.850;2022-08-19T11:29:27;19.50;;;16.53;;
4214;SDS011;2121;48.062;7.850;2022-08-19T11:31:54;18.60;;;16.70;;
4214;SDS011;2121;48.062;7.850;2022-08-19T11:34:21;19.67;;;17.05;;
4214;SDS011;2121;48.062;7.850;2022-08-19T11:36:52;16.60;;;14.77;;
4214;SDS011;2121;48.062;7.850;2022-08-19T11:39:20;20.42;;;16.52;;
4214;SDS011;2121;48.062;7.850;2022-08-19T11:41:47;20.55;;;16.92;;
4214;SDS011;2121;48.062;7.850;2022-08-19T11:44:13;24.90;;;18.40;;
4214;SDS011;2121;48.062;7.850;2022-08-19T11:46:39;22.27;;;18.20;;
4214;SDS011;2121;48.062;7.850;2022-08-19T11:49:10;23.40;;;17.98;;
4214;SDS011;2121;48.062;7.850;2022-08-19T11:51:37;21.88;;;15.35;;
4214;SDS011;2121;48.062;7.850;2022-08-19T11:54:04;24.00;;;18.48;;
4214;SDS011;2121;48.062;7.850;2022-08-19T11:56:31;27.40;;;18.73;;
4214;SDS011;2121;48.062;7.850;2022-08-19T11:58:57;21.60;;;18.25;;
4214;SDS011;2121;48.062;7.850;2022-08-19T12:01:24;20.95;;;18.63;;
4214;SDS011;2121;48.062;7.850;2022-08-19T12:03:53;20.42;;;18.25;;
4214;SDS011;2121;48.062;7.850;2022-08-19T12:06:22;22.90;;;18.45;;
4214;SDS011;2121;48.062;7.850;2022-08-19T12:08:53;20.00;;;17.90;;
4214;SDS011;2121;48.062;7.850;2022-08-19T12:11:21;21.17;;;17.95;;
4214;SDS011;2121;48.062;7.850;2022-08-19T12:13:48;18.65;;;15.57;;
4214;SDS011;2121;48.062;7.850;2022-08-19T12:16:16;22.52;;;17.25;;
4214;SDS011;2121;48.062;7.850;2022-08-19T12:18:45;20.25;;;17.10;;
4214;SDS011;2121;48.062;7.850;2022-08-19T12:21:13;22.45;;;17.33;;
4214;SDS011;2121;48.062;7.850;2022-08-19T12:23:43;23.77;;;17.55;;
4214;SDS011;2121;48.062;7.850;2022-08-19T12:26:11;21.55;;;17.55;;
4214;SDS011;2121;48.062;7.850;2022-08-19T12:28:37;19.00;;;16.93;;
4214;SDS011;2121;48.062;7.850;2022-08-19T12:31:04;17.23;;;15.40;;
4214;SDS011;2121;48.062;7.850;2022-08-19T12:33:31;19.80;;;16.92;;
4214;SDS011;2121;48.062;7.850;2022-08-19T12:36:00;20.63;;;18.43;;
4214;SDS011;2121;48.062;7.850;2022-08-19T12:38:29;21.00;;;17.73;;
4214;SDS011;2121;48.062;7.850;2022-08-19T12:40:55;19.35;;;17.40;;
4214;SDS011;2121;48.062;7.850;2022-08-19T12:43:21;24.13;;;18.03;;
4214;SDS011;2121;48.062;7.850;2022-08-19T12:45:46;20.00;;;17.87;;
4214;SDS011;2121;48.062;7.850;2022-08-19T12:48:12;20.00;;;17.80;;
4214;SDS011;2121;48.062;7.850;2022-08-19T12:50:39;19.87;;;17.80;;
4214;SDS011;2121;48.062;7.850;2022-08-19T12:53:07;20.77;;;18.37;;
4214;SDS011;2121;48.062;7.850;2022-08-19T12:55:33;18.43;;;16.50;;
4214;SDS011;2121;48.062;7.850;2022-08-19T12:57:59;17.55;;;15.55;;
4214;SDS011;2121;48.062;7.850;2022-08-19T13:00:27;14.20;;;12.80;;
4214;SDS011;2121;48.062;7.850;2022-08-19T13:02:53;13.88;;;12.50;;
4214;SDS011;2121;48.062;7.850;2022-08-19T13:05:21;12.73;;;11.52;;
4214;SDS011;2121;48.062;7.850;2022-08-19T13:07:51;15.88;;;12.13;;
4214;SDS011;2121;48.062;7.850;2022-08-19T13:10:23;13.85;;;12.52;;
4214;SDS011;2121;48.062;7.850;2022-08-19T13:12:54;14.68;;;13.35;;
4214;SDS011;2121;48.062;7.850;2022-08-19T13:15:21;13.55;;;12.32;;
4214;SDS011;2121;48.062;7.850;2022-08-19T13:17:48;13.75;;;12.50;;
4214;SDS011;2121;48.062;7.850;2022-08-19T13:20:16;11.20;;;10.13;;
4214;SDS011;2121;48.062;7.850;2022-08-19T13:22:45;11.15;;;10.07;;
4214;SDS011;2121;48.062;7.850;2022-08-19T13:25:13;12.13;;;10.93;;
4214;SDS011;2121;48.062;7.850;2022-08-19T13:27:42;9.88;;;8.90;;
4214;SDS011;2121;48.062;7.850;2022-08-19T13:30:09;16.38;;;9.40;;
4214;SDS011;2121;48.062;7.850;2022-08-19T13:32:56;13.07;;;11.77;;
4214;SDS011;2121;48.062;7.850;2022-08-19T13:35:51;12.48;;;11.30;;
4214;SDS011;2121;48.062;7.850;2022-08-19T13:38:23;12.60;;;11.35;;
4214;SDS011;2121;48.062;7.850;2022-08-19T13:40:50;12.15;;;10.82;;
4214;SDS011;2121;48.062;7.850;2022-08-19T13:43:18;11.45;;;10.43;;
4214;SDS011;2121;48.062;7.850;2022-08-19T13:45:47;12.43;;;11.23;;
4214;SDS011;2121;48.062;7.850;2022-08-19T13:48:21;11.93;;;10.90;;
4214;SDS011;2121;48.062;7.850;2022-08-19T13:50:48;15.25;;;10.07;;
4214;SDS011;2121;48.062;7.850;2022-08-19T13:53:14;11.65;;;10.55;;
4214;SDS011;2121;48.062;7.850;2022-08-19T13:55:41;12.60;;;11.50;;
4214;SDS011;2121;48.062;7.850;2022-08-19T13:58:09;11.95;;;10.80;;
4214;SDS011;2121;48.062;7.850;2022-08-19T14:00:41;12.25;;;11.25;;
4214;SDS011;2121;48.062;7.850;2022-08-19T14:03:11;11.27;;;10.20;;
4214;SDS011;2121;48.062;7.850;2022-08-19T14:05:37;13.73;;;9.73;;
4214;SDS011;2121;48.062;7.850;2022-08-19T14:08:03;9.80;;;8.93;;
4214;SDS011;2121;48.062;7.850;2022-08-19T14:10:29;11.63;;;10.52;;
4214;SDS011;2121;48.062;7.850;2022-08-19T14:12:59;11.52;;;10.43;;
4214;SDS011;2121;48.062;7.850;2022-08-19T14:15:28;13.07;;;10.80;;
4214;SDS011;2121;48.062;7.850;2022-08-19T14:17:55;10.10;;;9.20;;
4214;SDS011;2121;48.062;7.850;2022-08-19T14:20:21;11.30;;;10.30;;
4214;SDS011;2121;48.062;7.850;2022-08-19T14:22:51;12.23;;;10.20;;
4214;SDS011;2121;48.062;7.850;2022-08-19T14:25:26;12.17;;;10.97;;
4214;SDS011;2121;48.062;7.850;2022-08-19T14:27:54;14.23;;;11.50;;
4214;SDS011;2121;48.062;7.850;2022-08-19T14:30:25;11.10;;;10.10;;
4214;SDS011;2121;48.062;7.850;2022-08-19T14:32:56;12.50;;;11.30;;
4214;SDS011;2121;48.062;7.850;2022-08-19T14:35:23;12.73;;;11.33;;
4214;SDS011;2121;48.062;7.850;2022-08-19T14:37:51;13.03;;;11.83;;
4214;SDS011;2121;48.062;7.850;2022-08-19T14:40:23;15.40;;;13.90;;
4214;SDS011;2121;48.062;7.850;2022-08-19T14:42:56;12.90;;;11.60;;
4214;SDS011;2121;48.062;7.850;2022-08-19T14:45:29;13.30;;;12.00;;
4214;SDS011;2121;48.062;7.850;2022-08-19T14:47:57;13.37;;;12.07;;
4214;SDS011;2121;48.062;7.850;2022-08-19T14:50:24;13.50;;;12.10;;
4214;SDS011;2121;48.062;7.850;2022-08-19T14:53:01;12.80;;;10.10;;
4214;SDS011;2121;48.062;7.850;2022-08-19T14:55:30;11.67;;;10.47;;
4214;SDS011;2121;48.062;7.850;2022-08-19T14:57:57;11.23;;;10.13;;
4214;SDS011;2121;48.062;7.850;2022-08-19T15:00:23;11.63;;;10.63;;
4214;SDS011;2121;48.062;7.850;2022-08-19T15:02:50;12.10;;;10.40;;
4214;SDS011;2121;48.062;7.850;2022-08-19T15:05:16;14.13;;;12.73;;
4214;SDS011;2121;48.062;7.850;2022-08-19T15:07:42;12.23;;;10.97;;
4214;SDS011;2121;48.062;7.850;2022-08-19T15:10:08;12.07;;;10.77;;